sensor_id;sensor_type;location;lat;lon;timestamp;pressure;altitude;pressure_sealevel;temperature;humidity
48527;BME280;34317;51.660;5.824;2023-04-04T00:00:36;102927.91;;;5.66;44.40
48527;BME280;34317;51.660;5.824;2023-04-04T00:03:05;102932.25;;;5.64;44.34
48527;BME280;34317;51.660;5.824;2023-04-04T00:05:32;102928.72;;;5.59;44.21
48527;BME280;34317;51.660;5.824;2023-04-04T00:08:02;102934.81;;;5.57;44.52
48527;BME280;34317;51.660;5.824;2023-04-04T00:10:29;102935.66;;;5.51;44.70
48527;BME280;34317;51.660;5.824;2023-04-04T00:12:57;102930.38;;;5.46;44.46
48527;BME280;34317;51.660;5.824;2023-04-04T00:15:24;102932.06;;;5.43;44.62
48527;BME280;34317;51.660;5.824;2023-04-04T00:17:52;102930.28;;;5.40;44.76
48527;BME280;34317;51.660;5.824;2023-04-04T00:20:19;102930.28;;;5.39;44.88
48527;BME280;34317;51.660;5.824;2023-04-04T00:22:46;102926.72;;;5.37;44.89
48527;BME280;34317;51.660;5.824;2023-04-04T00:25:13;102928.47;;;5.35;44.83
48527;BME280;34317;51.660;5.824;2023-04-04T00:27:41;102924.94;;;5.33;44.99
48527;BME280;34317;51.660;5.824;2023-04-04T00:30:09;102930.19;;;5.30;44.74
48527;BME280;34317;51.660;5.824;2023-04-04T00:32:38;102931.91;;;5.28;44.74
48527;BME280;34317;51.660;5.824;2023-04-04T00:35:06;102931.84;;;5.21;44.96
48527;BME280;34317;51.660;5.824;2023-04-04T00:37:33;102931.81;;;5.18;44.83
48527;BME280;34317;51.660;5.824;2023-04-04T00:40:01;102926.53;;;5.15;45.05
48527;BME280;34317;51.660;5.824;2023-04-04T00:42:30;102930.03;;;5.14;45.26
48527;BME280;34317;51.660;5.824;2023-04-04T00:45:01;102925.59;;;5.12;45.26
48527;BME280;34317;51.660;5.824;2023-04-04T00:47:31;102924.72;;;5.11;45.12
48527;BME280;34317;51.660;5.824;2023-04-04T00:49:59;102928.19;;;5.10;45.23
48527;BME280;34317;51.660;5.824;2023-04-04T00:52:28;102918.59;;;5.09;45.37
48527;BME280;34317;51.660;5.824;2023-04-04T00:54:55;102928.19;;;5.07;45.33
48527;BME280;34317;51.660;5.824;2023-04-04T00:57:23;102929.91;;;5.05;45.17
48527;BME280;34317;51.660;5.824;2023-04-04T00:59:51;102926.34;;;5.00;45.26
48527;BME280;34317;51.660;5.824;2023-04-04T01:02:19;102924.56;;;4.96;45.41
48527;BME280;34317;51.660;5.824;2023-04-04T01:04:46;102924.50;;;4.93;45.29
48527;BME280;34317;51.660;5.824;2023-04-04T01:07:14;102913.97;;;4.90;45.28
48527;BME280;34317;51.660;5.824;2023-04-04T01:09:42;102920.94;;;4.87;45.65
48527;BME280;34317;51.660;5.824;2023-04-04T01:12:10;102911.28;;;4.85;45.37
48527;BME280;34317;51.660;5.824;2023-04-04T01:14:38;102909.50;;;4.84;45.77
48527;BME280;34317;51.660;5.824;2023-04-04T01:17:06;102911.25;;;4.80;45.47
48527;BME280;34317;51.660;5.824;2023-04-04T01:19:36;102905.97;;;4.79;45.71
48527;BME280;34317;51.660;5.824;2023-04-04T01:22:14;102911.19;;;4.76;46.00
48527;BME280;34317;51.660;5.824;2023-04-04T01:24:45;102913.78;;;4.74;45.50
48527;BME280;34317;51.660;5.824;2023-04-04T01:27:13;102907.63;;;4.72;45.74
48527;BME280;34317;51.660;5.824;2023-04-04T01:29:48;102906.72;;;4.70;45.96
48527;BME280;34317;51.660;5.824;2023-04-04T01:32:24;102914.56;;;4.68;45.89
48527;BME280;34317;51.660;5.824;2023-04-04T01:35:12;102904.03;;;4.64;45.98
48527;BME280;34317;51.660;5.824;2023-04-04T01:38:20;102904.88;;;4.60;45.88
48527;BME280;34317;51.660;5.824;2023-04-04T01:40:54;102916.16;;;4.56;45.92
48527;BME280;34317;51.660;5.824;2023-04-04T01:43:22;102914.31;;;4.50;45.79
48527;BME280;34317;51.660;5.824;2023-04-04T01:45:50;102907.28;;;4.46;45.94
48527;BME280;34317;51.660;5.824;2023-04-04T01:48:18;102908.13;;;4.43;46.20
48527;BME280;34317;51.660;5.824;2023-04-04T01:50:50;102909.84;;;4.41;46.35
48527;BME280;34317;51.660;5.824;2023-04-04T01:53:18;102909.81;;;4.38;46.24
48527;BME280;34317;51.660;5.824;2023-04-04T01:55:45;102914.16;;;4.36;46.25
48527;BME280;34317;51.660;5.824;2023-04-04T01:58:19;102905.34;;;4.33;46.25
48527;BME280;34317;51.660;5.824;2023-04-04T02:00:48;102900.94;;;4.30;46.26
48527;BME280;34317;51.660;5.824;2023-04-04T02:03:16;102899.16;;;4.26;46.21
48527;BME280;34317;51.660;5.824;2023-04-04T02:05:43;102903.47;;;4.22;46.06
48527;BME280;34317;51.660;5.824;2023-04-04T02:08:11;102897.28;;;4.19;46.07
48527;BME280;34317;51.660;5.824;2023-04-04T02:10:47;102902.47;;;4.16;46.00
48527;BME280;34317;51.660;5.824;2023-04-04T02:13:14;102907.69;;;4.13;46.22
48527;BME280;34317;51.660;5.824;2023-04-04T02:15:43;102899.81;;;4.11;46.31
48527;BME280;34317;51.660;5.824;2023-04-04T02:18:10;102906.78;;;4.09;46.32
48527;BME280;34317;51.660;5.824;2023-04-04T02:20:38;102914.59;;;4.07;46.21
48527;BME280;34317;51.660;5.824;2023-04-04T02:23:06;102911.09;;;4.05;46.00
48527;BME280;34317;51.660;5.824;2023-04-04T02:25:34;102913.63;;;4.02;46.05
48527;BME280;34317;51.660;5.824;2023-04-04T02:28:02;102917.97;;;4.00;46.42
48527;BME280;34317;51.660;5.824;2023-04-04T02:30:29;102915.38;;;4.00;46.14
48527;BME280;34317;51.660;5.824;2023-04-04T02:32:57;102921.44;;;3.99;46.08
48527;BME280;34317;51.660;5.824;2023-04-04T02:35:27;102923.19;;;3.99;46.30
48527;BME280;34317;51.660;5.824;2023-04-04T02:37:54;102917.91;;;3.97;46.34
48527;BME280;34317;51.660;5.824;2023-04-04T02:40:26;102923.13;;;3.94;46.16
48527;BME280;34317;51.660;5.824;2023-04-04T02:42:53;102921.34;;;3.93;46.42
48527;BME280;34317;51.660;5.824;2023-04-04T02:45:20;102912.59;;;3.91;46.31
48527;BME280;34317;51.660;5.824;2023-04-04T02:47:57;102909.97;;;3.91;46.36
48527;BME280;34317;51.660;5.824;2023-04-04T02:50:34;102910.84;;;3.90;46.45
48527;BME280;34317;51.660;5.824;2023-04-04T02:53:02;102914.31;;;3.89;46.24
48527;BME280;34317;51.660;5.824;2023-04-04T02:55:33;102905.53;;;3.87;46.43
48527;BME280;34317;51.660;5.824;2023-04-04T02:58:01;102902.00;;;3.85;46.34
48527;BME280;34317;51.660;5.824;2023-04-04T03:00:29;102905.47;;;3.84;46.52
48527;BME280;34317;51.660;5.824;2023-04-04T03:02:56;102905.44;;;3.81;46.44
48527;BME280;34317;51.660;5.824;2023-04-04T03:05:34;102900.22;;;3.81;46.41
48527;BME280;34317;51.660;5.824;2023-04-04T03:08:03;102906.25;;;3.78;46.47
48527;BME280;34317;51.660;5.824;2023-04-04T03:10:31;102901.94;;;3.79;46.66
48527;BME280;34317;51.660;5.824;2023-04-04T03:12:58;102898.38;;;3.77;46.67
48527;BME280;34317;51.660;5.824;2023-04-04T03:15:27;102893.97;;;3.74;46.69
48527;BME280;34317;51.660;5.824;2023-04-04T03:17:55;102887.81;;;3.72;46.44
48527;BME280;34317;51.660;5.824;2023-04-04T03:20:25;102894.81;;;3.72;46.59
48527;BME280;34317;51.660;5.824;2023-04-04T03:22:53;102900.06;;;3.72;46.80
48527;BME280;34317;51.660;5.824;2023-04-04T03:25:20;102880.81;;;3.69;46.70
48527;BME280;34317;51.660;5.824;2023-04-04T03:27:47;102884.28;;;3.68;46.57
48527;BME280;34317;51.660;5.824;2023-04-04T03:30:21;102884.19;;;3.65;46.65
48527;BME280;34317;51.660;5.824;2023-04-04T03:32:49;102889.44;;;3.65;46.68
48527;BME280;34317;51.660;5.824;2023-04-04T03:35:16;102891.16;;;3.63;46.63
48527;BME280;34317;51.660;5.824;2023-04-04T03:37:44;102891.16;;;3.63;46.79
48527;BME280;34317;51.660;5.824;2023-04-04T03:40:11;102892.03;;;3.62;46.80
48527;BME280;34317;51.660;5.824;2023-04-04T03:42:40;102889.41;;;3.62;46.79
48527;BME280;34317;51.660;5.824;2023-04-04T03:45:10;102885.88;;;3.60;46.78
48527;BME280;34317;51.660;5.824;2023-04-04T03:47:39;102884.13;;;3.59;46.72
48527;BME280;34317;51.660;5.824;2023-04-04T03:50:07;102894.59;;;3.59;46.70
48527;BME280;34317;51.660;5.824;2023-04-04T03:52:37;102891.06;;;3.57;46.83
48527;BME280;34317;51.660;5.824;2023-04-04T03:55:07;102898.03;;;3.55;46.74
48527;BME280;34317;51.660;5.824;2023-04-04T03:57:34;102884.00;;;3.53;46.76
48527;BME280;34317;51.660;5.824;2023-04-04T04:00:04;102887.47;;;3.52;46.85
48527;BME280;34317;51.660;5.824;2023-04-04T04:02:39;102887.47;;;3.52;46.84
48527;BME280;34317;51.660;5.824;2023-04-04T04:05:08;102880.50;;;3.51;46.71
48527;BME280;34317;51.660;5.824;2023-04-04T04:07:42;102882.19;;;3.49;46.91
48527;BME280;34317;51.660;5.824;2023-04-04T04:10:10;102878.72;;;3.48;46.71
48527;BME280;34317;51.660;5.824;2023-04-04T04:12:38;102873.44;;;3.47;46.68
48527;BME280;34317;51.660;5.824;2023-04-04T04:15:05;102871.66;;;3.46;46.88
48527;BME280;34317;51.660;5.824;2023-04-04T04:17:33;102873.38;;;3.44;46.82
48527;BME280;34317;51.660;5.824;2023-04-04T04:20:01;102872.47;;;3.42;46.77
48527;BME280;34317;51.660;5.824;2023-04-04T04:22:35;102871.56;;;3.40;46.78
48527;BME280;34317;51.660;5.824;2023-04-04T04:25:06;102875.91;;;3.38;46.79
48527;BME280;34317;51.660;5.824;2023-04-04T04:27:34;102881.97;;;3.37;46.97
48527;BME280;34317;51.660;5.824;2023-04-04T04:30:02;102874.91;;;3.33;46.74
48527;BME280;34317;51.660;5.824;2023-04-04T04:32:35;102876.63;;;3.30;46.97
48527;BME280;34317;51.660;5.824;2023-04-04T04:35:03;102867.00;;;3.28;47.04
48527;BME280;34317;51.660;5.824;2023-04-04T04:37:33;102870.47;;;3.27;46.87
48527;BME280;34317;51.660;5.824;2023-04-04T04:40:02;102869.56;;;3.25;47.21
48527;BME280;34317;51.660;5.824;2023-04-04T04:42:42;102883.53;;;3.25;47.04
48527;BME280;34317;51.660;5.824;2023-04-04T04:45:10;102879.13;;;3.23;46.86
48527;BME280;34317;51.660;5.824;2023-04-04T04:47:40;102877.34;;;3.22;47.20
48527;BME280;34317;51.660;5.824;2023-04-04T04:50:09;102883.41;;;3.19;47.07
48527;BME280;34317;51.660;5.824;2023-04-04T04:52:42;102886.00;;;3.18;47.02
48527;BME280;34317;51.660;5.824;2023-04-04T04:55:16;102883.31;;;3.13;46.96
48527;BME280;34317;51.660;5.824;2023-04-04T04:57:49;102895.50;;;3.11;46.99
48527;BME280;34317;51.660;5.824;2023-04-04T05:00:21;102895.41;;;3.08;46.91
48527;BME280;34317;51.660;5.824;2023-04-04T05:02:53;102891.03;;;3.05;47.23
48527;BME280;34317;51.660;5.824;2023-04-04T05:05:29;102889.25;;;3.04;47.16
48527;BME280;34317;51.660;5.824;2023-04-04T05:08:03;102891.81;;;3.03;47.22
48527;BME280;34317;51.660;5.824;2023-04-04T05:10:32;102892.69;;;3.02;47.35
48527;BME280;34317;51.660;5.824;2023-04-04T05:13:00;102891.81;;;3.03;47.25
48527;BME280;34317;51.660;5.824;2023-04-04T05:15:33;102897.97;;;3.03;47.27
48527;BME280;34317;51.660;5.824;2023-04-04T05:18:01;102893.59;;;3.04;47.19
48527;BME280;34317;51.660;5.824;2023-04-04T05:20:28;102888.38;;;3.04;47.44
48527;BME280;34317;51.660;5.824;2023-04-04T05:22:58;102895.34;;;3.05;47.35
48527;BME280;34317;51.660;5.824;2023-04-04T05:25:33;102897.13;;;3.06;47.21
48527;BME280;34317;51.660;5.824;2023-04-04T05:28:01;102895.34;;;3.05;47.24
48527;BME280;34317;51.660;5.824;2023-04-04T05:30:31;102895.34;;;3.05;47.20
48527;BME280;34317;51.660;5.824;2023-04-04T05:33:15;102895.34;;;3.05;47.40
48527;BME280;34317;51.660;5.824;2023-04-04T05:35:49;102904.06;;;3.04;47.43
48527;BME280;34317;51.660;5.824;2023-04-04T05:38:17;102902.28;;;3.03;47.31
48527;BME280;34317;51.660;5.824;2023-04-04T05:40:47;102907.53;;;3.03;47.47
48527;BME280;34317;51.660;5.824;2023-04-04T05:43:15;102907.53;;;3.03;47.43
48527;BME280;34317;51.660;5.824;2023-04-04T05:45:52;102907.53;;;3.03;47.48
48527;BME280;34317;51.660;5.824;2023-04-04T05:48:19;102917.19;;;3.05;47.50
48527;BME280;34317;51.660;5.824;2023-04-04T05:50:50;102914.59;;;3.07;47.28
48527;BME280;34317;51.660;5.824;2023-04-04T05:53:23;102910.28;;;3.09;47.51
48527;BME280;34317;51.660;5.824;2023-04-04T05:55:52;102909.50;;;3.13;47.71
48527;BME280;34317;51.660;5.824;2023-04-04T05:58:22;102913.00;;;3.15;47.50
48527;BME280;34317;51.660;5.824;2023-04-04T06:00:54;102908.69;;;3.17;47.71
48527;BME280;34317;51.660;5.824;2023-04-04T06:03:21;102918.28;;;3.18;47.53
48527;BME280;34317;51.660;5.824;2023-04-04T06:05:52;102918.38;;;3.21;47.79
48527;BME280;34317;51.660;5.824;2023-04-04T06:08:20;102918.44;;;3.24;47.61
48527;BME280;34317;51.660;5.824;2023-04-04T06:10:47;102912.34;;;3.27;47.73
48527;BME280;34317;51.660;5.824;2023-04-04T06:13:14;102914.19;;;3.31;47.77
48527;BME280;34317;51.660;5.824;2023-04-04T06:15:48;102920.41;;;3.38;47.78
48527;BME280;34317;51.660;5.824;2023-04-04T06:18:18;102924.94;;;3.45;47.97
48527;BME280;34317;51.660;5.824;2023-04-04T06:20:45;102929.41;;;3.52;47.95
48527;BME280;34317;51.660;5.824;2023-04-04T06:23:14;102933.97;;;3.62;48.22
48527;BME280;34317;51.660;5.824;2023-04-04T06:25:44;102932.34;;;3.70;48.05
48527;BME280;34317;51.660;5.824;2023-04-04T06:28:13;102933.41;;;3.82;48.03
48527;BME280;34317;51.660;5.824;2023-04-04T06:30:44;102943.19;;;3.92;48.17
48527;BME280;34317;51.660;5.824;2023-04-04T06:33:14;102933.78;;;4.03;48.42
48527;BME280;34317;51.660;5.824;2023-04-04T06:35:46;102937.47;;;4.18;48.22
48527;BME280;34317;51.660;5.824;2023-04-04T06:38:14;102935.09;;;4.32;48.30
48527;BME280;34317;51.660;5.824;2023-04-04T06:40:41;102936.13;;;4.44;48.36
48527;BME280;34317;51.660;5.824;2023-04-04T06:43:09;102933.66;;;4.55;48.42
48527;BME280;34317;51.660;5.824;2023-04-04T06:45:41;102940.81;;;4.65;48.17
48527;BME280;34317;51.660;5.824;2023-04-04T06:48:08;102947.91;;;4.76;48.47
48527;BME280;34317;51.660;5.824;2023-04-04T06:50:36;102934.94;;;4.86;48.48
48527;BME280;34317;51.660;5.824;2023-04-04T06:53:08;102936.91;;;5.06;48.55
48527;BME280;34317;51.660;5.824;2023-04-04T06:55:35;102934.50;;;5.24;48.83
48527;BME280;34317;51.660;5.824;2023-04-04T06:58:02;102932.94;;;5.42;48.82
48527;BME280;34317;51.660;5.824;2023-04-04T07:00:30;102934.00;;;5.62;48.72
48527;BME280;34317;51.660;5.824;2023-04-04T07:02:58;102935.03;;;5.78;48.45
48527;BME280;34317;51.660;5.824;2023-04-04T07:05:26;102927.22;;;5.89;48.50
48527;BME280;34317;51.660;5.824;2023-04-04T07:07:54;102936.09;;;5.97;48.34
48527;BME280;34317;51.660;5.824;2023-04-04T07:10:24;102935.25;;;6.04;48.09
48527;BME280;34317;51.660;5.824;2023-04-04T07:12:52;102934.47;;;6.15;48.12
48527;BME280;34317;51.660;5.824;2023-04-04T07:15:19;102938.06;;;6.26;48.17
48527;BME280;34317;51.660;5.824;2023-04-04T07:17:46;102932.84;;;6.38;48.13
48527;BME280;34317;51.660;5.824;2023-04-04T07:20:13;102938.25;;;6.54;48.46
48527;BME280;34317;51.660;5.824;2023-04-04T07:22:41;102938.28;;;6.66;47.99
48527;BME280;34317;51.660;5.824;2023-04-04T07:25:10;102936.59;;;6.74;47.68
48527;BME280;34317;51.660;5.824;2023-04-04T07:27:39;102939.25;;;6.85;47.77
48527;BME280;34317;51.660;5.824;2023-04-04T07:30:09;102924.38;;;6.98;47.87
48527;BME280;34317;51.660;5.824;2023-04-04T07:32:37;102924.44;;;7.16;48.00
48527;BME280;34317;51.660;5.824;2023-04-04T07:35:05;102928.88;;;7.36;48.09
48527;BME280;34317;51.660;5.824;2023-04-04T07:37:35;102935.06;;;7.50;47.30
48527;BME280;34317;51.660;5.824;2023-04-04T07:40:06;102933.31;;;7.62;47.51
48527;BME280;34317;51.660;5.824;2023-04-04T07:42:34;102938.59;;;7.74;47.41
48527;BME280;34317;51.660;5.824;2023-04-04T07:45:03;102942.09;;;7.85;47.15
48527;BME280;34317;51.660;5.824;2023-04-04T07:47:30;102933.31;;;7.95;47.28
48527;BME280;34317;51.660;5.824;2023-04-04T07:49:57;102933.31;;;8.11;47.22
48527;BME280;34317;51.660;5.824;2023-04-04T07:52:24;102933.31;;;8.23;46.89
48527;BME280;34317;51.660;5.824;2023-04-04T07:54:51;102929.75;;;8.30;46.49
48527;BME280;34317;51.660;5.824;2023-04-04T07:57:19;102924.47;;;8.36;46.47
48527;BME280;34317;51.660;5.824;2023-04-04T07:59:46;102929.78;;;8.43;46.25
48527;BME280;34317;51.660;5.824;2023-04-04T08:02:13;102922.69;;;8.51;46.31
48527;BME280;34317;51.660;5.824;2023-04-04T08:04:40;102923.56;;;8.59;46.17
48527;BME280;34317;51.660;5.824;2023-04-04T08:07:08;102923.50;;;8.70;46.18
48527;BME280;34317;51.660;5.824;2023-04-04T08:09:35;102928.75;;;8.79;46.10
48527;BME280;34317;51.660;5.824;2023-04-04T08:12:03;102925.22;;;8.88;46.09
48527;BME280;34317;51.660;5.824;2023-04-04T08:14:32;102926.91;;;9.00;46.00
48527;BME280;34317;51.660;5.824;2023-04-04T08:16:59;102926.00;;;9.08;45.63
48527;BME280;34317;51.660;5.824;2023-04-04T08:19:27;102927.72;;;9.15;45.47
48527;BME280;34317;51.660;5.824;2023-04-04T08:21:55;102929.44;;;9.23;45.72
48527;BME280;34317;51.660;5.824;2023-04-04T08:24:23;102923.22;;;9.33;45.32
48527;BME280;34317;51.660;5.824;2023-04-04T08:26:54;102923.16;;;9.41;45.27
48527;BME280;34317;51.660;5.824;2023-04-04T08:29:31;102924.84;;;9.54;45.41
48527;BME280;34317;51.660;5.824;2023-04-04T08:31:59;102918.56;;;9.69;45.38
48527;BME280;34317;51.660;5.824;2023-04-04T08:34:27;102920.19;;;9.82;44.34
48527;BME280;34317;51.660;5.824;2023-04-04T08:36:55;102915.72;;;9.90;44.66
48527;BME280;34317;51.660;5.824;2023-04-04T08:39:22;102918.25;;;10.03;44.80
48527;BME280;34317;51.660;5.824;2023-04-04T08:41:57;102913.72;;;10.16;43.93
48527;BME280;34317;51.660;5.824;2023-04-04T08:44:28;102910.13;;;10.23;43.96
48527;BME280;34317;51.660;5.824;2023-04-04T08:47:02;102912.69;;;10.33;43.93
48527;BME280;34317;51.660;5.824;2023-04-04T08:49:36;102916.09;;;10.45;43.42
48527;BME280;34317;51.660;5.824;2023-04-04T08:52:04;102910.75;;;10.51;43.15
48527;BME280;34317;51.660;5.824;2023-04-04T08:54:33;102919.50;;;10.56;43.18
48527;BME280;34317;51.660;5.824;2023-04-04T08:57:01;102910.59;;;10.62;42.67
48527;BME280;34317;51.660;5.824;2023-04-04T08:59:28;102910.56;;;10.66;42.43
48527;BME280;34317;51.660;5.824;2023-04-04T09:02:03;102908.75;;;10.68;41.88
48527;BME280;34317;51.660;5.824;2023-04-04T09:04:39;102906.03;;;10.75;42.22
48527;BME280;34317;51.660;5.824;2023-04-04T09:07:09;102906.00;;;10.78;41.24
48527;BME280;34317;51.660;5.824;2023-04-04T09:09:38;102910.38;;;10.82;41.71
48527;BME280;34317;51.660;5.824;2023-04-04T09:12:07;102908.47;;;10.90;41.53
48527;BME280;34317;51.660;5.824;2023-04-04T09:14:36;102906.66;;;10.95;41.37
48527;BME280;34317;51.660;5.824;2023-04-04T09:17:05;102903.09;;;10.96;40.50
48527;BME280;34317;51.660;5.824;2023-04-04T09:19:35;102910.19;;;10.94;40.57
48527;BME280;34317;51.660;5.824;2023-04-04T09:22:06;102903.09;;;10.96;40.41
48527;BME280;34317;51.660;5.824;2023-04-04T09:24:41;102896.00;;;10.98;40.28
48527;BME280;34317;51.660;5.824;2023-04-04T09:27:09;102903.06;;;10.99;40.26
48527;BME280;34317;51.660;5.824;2023-04-04T09:29:38;102901.25;;;11.01;40.50
48527;BME280;34317;51.660;5.824;2023-04-04T09:32:14;102902.91;;;11.12;40.71
48527;BME280;34317;51.660;5.824;2023-04-04T09:34:43;102907.97;;;11.27;40.91
48527;BME280;34317;51.660;5.824;2023-04-04T09:37:13;102905.09;;;11.41;40.48
48527;BME280;34317;51.660;5.824;2023-04-04T09:39:43;102904.09;;;11.49;40.50
48527;BME280;34317;51.660;5.824;2023-04-04T09:42:10;102891.59;;;11.56;40.75
48527;BME280;34317;51.660;5.824;2023-04-04T09:44:38;102902.03;;;11.67;40.61
48527;BME280;34317;51.660;5.824;2023-04-04T09:47:25;102893.94;;;11.76;40.27
48527;BME280;34317;51.660;5.824;2023-04-04T09:49:58;102892.97;;;11.80;39.82
48527;BME280;34317;51.660;5.824;2023-04-04T09:52:26;102880.53;;;11.82;40.09
48527;BME280;34317;51.660;5.824;2023-04-04T09:54:54;102880.41;;;11.92;39.32
48527;BME280;34317;51.660;5.824;2023-04-04T09:57:31;102878.59;;;11.94;38.82
48527;BME280;34317;51.660;5.824;2023-04-04T09:59:59;102884.00;;;11.91;38.50
48527;BME280;34317;51.660;5.824;2023-04-04T10:02:30;102877.81;;;11.87;38.66
48527;BME280;34317;51.660;5.824;2023-04-04T10:04:58;102877.75;;;11.92;39.32
48527;BME280;34317;51.660;5.824;2023-04-04T10:07:29;102880.25;;;12.01;39.46
48527;BME280;34317;51.660;5.824;2023-04-04T10:10:01;102880.94;;;12.12;38.68
48527;BME280;34317;51.660;5.824;2023-04-04T10:12:30;102884.34;;;12.19;38.91
48527;BME280;34317;51.660;5.824;2023-04-04T10:14:59;102874.56;;;12.21;38.74
48527;BME280;34317;51.660;5.824;2023-04-04T10:17:35;102879.91;;;12.19;37.57
48527;BME280;34317;51.660;5.824;2023-04-04T10:20:04;102867.59;;;12.15;37.73
48527;BME280;34317;51.660;5.824;2023-04-04T10:22:32;102864.97;;;12.14;37.73
48527;BME280;34317;51.660;5.824;2023-04-04T10:25:00;102864.94;;;12.15;37.96
48527;BME280;34317;51.660;5.824;2023-04-04T10:27:27;102862.19;;;12.18;37.77
48527;BME280;34317;51.660;5.824;2023-04-04T10:29:55;102865.66;;;12.23;37.87
48527;BME280;34317;51.660;5.824;2023-04-04T10:32:31;102864.63;;;12.31;38.30
48527;BME280;34317;51.660;5.824;2023-04-04T10:35:02;102867.03;;;12.43;37.88
48527;BME280;34317;51.660;5.824;2023-04-04T10:38:02;102865.22;;;12.45;37.77
48527;BME280;34317;51.660;5.824;2023-04-04T10:40:34;102864.31;;;12.46;37.80
48527;BME280;34317;51.660;5.824;2023-04-04T10:43:05;102865.09;;;12.51;38.15
48527;BME280;34317;51.660;5.824;2023-04-04T10:45:35;102857.91;;;12.56;37.69
48527;BME280;34317;51.660;5.824;2023-04-04T10:48:06;102857.84;;;12.59;37.76
48527;BME280;34317;51.660;5.824;2023-04-04T10:50:37;102854.28;;;12.60;37.42
48527;BME280;34317;51.660;5.824;2023-04-04T10:53:05;102856.03;;;12.61;37.47
48527;BME280;34317;51.660;5.824;2023-04-04T10:55:34;102850.66;;;12.64;37.69
48527;BME280;34317;51.660;5.824;2023-04-04T10:58:04;102848.69;;;12.73;37.75
48527;BME280;34317;51.660;5.824;2023-04-04T11:00:31;102841.50;;;12.78;37.60
48527;BME280;34317;51.660;5.824;2023-04-04T11:03:00;102830.88;;;12.78;36.79
48527;BME280;34317;51.660;5.824;2023-04-04T11:05:33;102837.06;;;12.77;37.31
48527;BME280;34317;51.660;5.824;2023-04-04T11:08:08;102841.34;;;12.84;37.22
48527;BME280;34317;51.660;5.824;2023-04-04T11:13:18;102828.84;;;12.89;36.31
48527;BME280;34317;51.660;5.824;2023-04-04T11:16:04;102830.66;;;12.87;37.06
48527;BME280;34317;51.660;5.824;2023-04-04T11:21:15;102826.84;;;12.97;36.75
48527;BME280;34317;51.660;5.824;2023-04-04T11:28:58;102818.03;;;12.95;36.33
48527;BME280;34317;51.660;5.824;2023-04-04T11:31:27;102817.13;;;12.98;36.42
48527;BME280;34317;51.660;5.824;2023-04-04T11:34:08;102812.50;;;13.04;36.57
48527;BME280;34317;51.660;5.824;2023-04-04T11:39:08;102799.75;;;13.19;36.55
48527;BME280;34317;51.660;5.824;2023-04-04T11:41:51;102801.38;;;13.26;36.31
48527;BME280;34317;51.660;5.824;2023-04-04T11:44:24;102800.47;;;13.25;36.40
48527;BME280;34317;51.660;5.824;2023-04-04T11:49:39;102794.22;;;13.28;36.37
48527;BME280;34317;51.660;5.824;2023-04-04T11:52:09;102804.84;;;13.28;36.20
48527;BME280;34317;51.660;5.824;2023-04-04T11:54:37;102800.41;;;13.30;36.40
48527;BME280;34317;51.660;5.824;2023-04-04T11:57:06;102790.50;;;13.35;36.38
48527;BME280;34317;51.660;5.824;2023-04-04T11:59:38;102800.84;;;13.48;36.44
48527;BME280;34317;51.660;5.824;2023-04-04T12:02:11;102793.53;;;13.56;36.14
48527;BME280;34317;51.660;5.824;2023-04-04T12:04:40;102790.72;;;13.62;36.08
48527;BME280;34317;51.660;5.824;2023-04-04T12:07:10;102795.03;;;13.66;36.11
48527;BME280;34317;51.660;5.824;2023-04-04T12:09:41;102782.50;;;13.71;36.17
48527;BME280;34317;51.660;5.824;2023-04-04T12:12:13;102781.47;;;13.75;35.72
48527;BME280;34317;51.660;5.824;2023-04-04T12:14:42;102786.78;;;13.77;35.35
48527;BME280;34317;51.660;5.824;2023-04-04T12:17:10;102771.66;;;13.77;35.34
48527;BME280;34317;51.660;5.824;2023-04-04T12:19:38;102764.50;;;13.79;35.20
48527;BME280;34317;51.660;5.824;2023-04-04T12:22:06;102766.38;;;13.76;34.42
48527;BME280;34317;51.660;5.824;2023-04-04T12:24:36;102762.84;;;13.75;35.29
48527;BME280;34317;51.660;5.824;2023-04-04T12:27:04;102753.84;;;13.79;35.17
48527;BME280;34317;51.660;5.824;2023-04-04T12:29:32;102754.59;;;13.85;34.32
48527;BME280;34317;51.660;5.824;2023-04-04T12:32:04;102755.50;;;13.83;34.20
48527;BME280;34317;51.660;5.824;2023-04-04T12:34:33;102750.13;;;13.85;34.44
48527;BME280;34317;51.660;5.824;2023-04-04T12:37:08;102746.44;;;13.91;34.76
48527;BME280;34317;51.660;5.824;2023-04-04T12:39:39;102742.69;;;13.98;34.86
48527;BME280;34317;51.660;5.824;2023-04-04T12:42:08;102731.63;;;14.10;35.21
48527;BME280;34317;51.660;5.824;2023-04-04T12:44:38;102731.38;;;14.19;34.95
48527;BME280;34317;51.660;5.824;2023-04-04T12:47:06;102725.75;;;14.29;35.13
48527;BME280;34317;51.660;5.824;2023-04-04T12:52:06;102723.72;;;14.37;34.41
48527;BME280;34317;51.660;5.824;2023-04-04T12:54:38;102716.56;;;14.39;34.16
48527;BME280;34317;51.660;5.824;2023-04-04T12:57:05;102710.31;;;14.40;34.33
48527;BME280;34317;51.660;5.824;2023-04-04T12:59:35;102720.06;;;14.41;33.69
48527;BME280;34317;51.660;5.824;2023-04-04T13:02:06;102712.06;;;14.41;33.83
48527;BME280;34317;51.660;5.824;2023-04-04T13:04:34;102713.69;;;14.47;34.44
48527;BME280;34317;51.660;5.824;2023-04-04T13:07:02;102704.53;;;14.54;34.36
48527;BME280;34317;51.660;5.824;2023-04-04T13:09:30;102699.16;;;14.55;33.91
48527;BME280;34317;51.660;5.824;2023-04-04T13:15:00;102694.84;;;14.51;34.07
48527;BME280;34317;51.660;5.824;2023-04-04T13:17:48;102696.53;;;14.54;34.07
48527;BME280;34317;51.660;5.824;2023-04-04T13:20:18;102695.59;;;14.56;34.18
48527;BME280;34317;51.660;5.824;2023-04-04T13:22:45;102680.31;;;14.62;34.20
48527;BME280;34317;51.660;5.824;2023-04-04T13:25:12;102685.47;;;14.68;34.42
48527;BME280;34317;51.660;5.824;2023-04-04T13:27:40;102673.69;;;14.75;34.18
48527;BME280;34317;51.660;5.824;2023-04-04T13:30:07;102661.88;;;14.82;34.44
48527;BME280;34317;51.660;5.824;2023-04-04T13:32:36;102665.16;;;14.90;33.96